sensor_id;sensor_type;location;lat;lon;timestamp;P1;durP1;ratioP1;P2;durP2;ratioP2
31848;SDS011;18414;59.352;18.152;2022-08-21T00:01:05;4.00;;;1.30;;
31848;SDS011;18414;59.352;18.152;2022-08-21T00:03:32;5.45;;;1.40;;
31848;SDS011;18414;59.352;18.152;2022-08-21T00:05:57;2.45;;;1.30;;
31848;SDS011;18414;59.352;18.152;2022-08-21T00:08:24;3.78;;;1.30;;
31848;SDS011;18414;59.352;18.152;2022-08-21T00:10:50;4.03;;;1.42;;
31848;SDS011;18414;59.352;18.152;2022-08-21T00:13:16;4.15;;;1.27;;
31848;SDS011;18414;59.352;18.152;2022-08-21T00:15:42;3.45;;;1.10;;
31848;SDS011;18414;59.352;18.152;2022-08-21T00:18:08;2.95;;;1.15;;
31848;SDS011;18414;59.352;18.152;2022-08-21T00:20:36;3.47;;;1.50;;
31848;SDS011;18414;59.352;18.152;2022-08-21T00:23:02;5.30;;;1.30;;
31848;SDS011;18414;59.352;18.152;2022-08-21T00:25:27;4.43;;;1.60;;
31848;SDS011;18414;59.352;18.152;2022-08-21T00:27:53;2.38;;;1.17;;
31848;SDS011;18414;59.352;18.152;2022-08-21T00:30:19;5.07;;;1.60;;
31848;SDS011;18414;59.352;18.152;2022-08-21T00:32:46;3.38;;;1.98;;
31848;SDS011;18414;59.352;18.152;2022-08-21T00:35:12;5.78;;;1.50;;
31848;SDS011;18414;59.352;18.152;2022-08-21T00:37:39;5.40;;;1.40;;
31848;SDS011;18414;59.352;18.152;2022-08-21T00:40:06;3.50;;;1.27;;
31848;SDS011;18414;59.352;18.152;2022-08-21T00:42:35;4.43;;;1.17;;
31848;SDS011;18414;59.352;18.152;2022-08-21T00:45:00;6.30;;;1.38;;
31848;SDS011;18414;59.352;18.152;2022-08-21T00:47:27;4.30;;;1.35;;
31848;SDS011;18414;59.352;18.152;2022-08-21T00:49:52;7.32;;;1.58;;
31848;SDS011;18414;59.352;18.152;2022-08-21T00:52:19;4.60;;;1.45;;
31848;SDS011;18414;59.352;18.152;2022-08-21T00:54:46;6.03;;;1.50;;
31848;SDS011;18414;59.352;18.152;2022-08-21T00:57:14;3.60;;;1.40;;
31848;SDS011;18414;59.352;18.152;2022-08-21T00:59:41;5.60;;;1.50;;
31848;SDS011;18414;59.352;18.152;2022-08-21T01:02:09;6.22;;;1.60;;
31848;SDS011;18414;59.352;18.152;2022-08-21T01:04:35;4.88;;;1.50;;
31848;SDS011;18414;59.352;18.152;2022-08-21T01:07:01;5.88;;;1.67;;
31848;SDS011;18414;59.352;18.152;2022-08-21T01:09:26;4.38;;;1.50;;
31848;SDS011;18414;59.352;18.152;2022-08-21T01:11:52;4.60;;;1.52;;
31848;SDS011;18414;59.352;18.152;2022-08-21T01:14:18;4.40;;;1.35;;
31848;SDS011;18414;59.352;18.152;2022-08-21T01:16:45;8.30;;;1.95;;
31848;SDS011;18414;59.352;18.152;2022-08-21T01:19:12;5.10;;;1.55;;
31848;SDS011;18414;59.352;18.152;2022-08-21T01:21:39;6.90;;;1.70;;
31848;SDS011;18414;59.352;18.152;2022-08-21T01:24:04;5.20;;;1.40;;
31848;SDS011;18414;59.352;18.152;2022-08-21T01:26:31;10.05;;;1.70;;
31848;SDS011;18414;59.352;18.152;2022-08-21T01:29:08;3.65;;;1.50;;
31848;SDS011;18414;59.352;18.152;2022-08-21T01:31:38;6.82;;;1.48;;
31848;SDS011;18414;59.352;18.152;2022-08-21T01:34:04;7.45;;;1.80;;
31848;SDS011;18414;59.352;18.152;2022-08-21T01:36:29;5.32;;;1.73;;
31848;SDS011;18414;59.352;18.152;2022-08-21T01:38:55;6.65;;;1.80;;
31848;SDS011;18414;59.352;18.152;2022-08-21T01:41:21;4.68;;;1.98;;
31848;SDS011;18414;59.352;18.152;2022-08-21T01:43:47;5.05;;;1.60;;
31848;SDS011;18414;59.352;18.152;2022-08-21T01:46:12;4.80;;;1.52;;
31848;SDS011;18414;59.352;18.152;2022-08-21T01:48:38;5.07;;;1.48;;
31848;SDS011;18414;59.352;18.152;2022-08-21T01:51:04;5.55;;;1.65;;
31848;SDS011;18414;59.352;18.152;2022-08-21T01:53:32;5.13;;;1.80;;
31848;SDS011;18414;59.352;18.152;2022-08-21T01:56:00;4.10;;;1.50;;
31848;SDS011;18414;59.352;18.152;2022-08-21T01:58:26;8.82;;;1.65;;
31848;SDS011;18414;59.352;18.152;2022-08-21T02:00:52;6.97;;;1.67;;
31848;SDS011;18414;59.352;18.152;2022-08-21T02:03:17;6.43;;;1.73;;
31848;SDS011;18414;59.352;18.152;2022-08-21T02:05:42;4.60;;;1.50;;
31848;SDS011;18414;59.352;18.152;2022-08-21T02:08:08;5.05;;;1.88;;
31848;SDS011;18414;59.352;18.152;2022-08-21T02:10:33;6.45;;;1.73;;
31848;SDS011;18414;59.352;18.152;2022-08-21T02:12:59;3.63;;;1.50;;
31848;SDS011;18414;59.352;18.152;2022-08-21T02:15:25;6.45;;;1.60;;
31848;SDS011;18414;59.352;18.152;2022-08-21T02:17:53;3.45;;;1.50;;
31848;SDS011;18414;59.352;18.152;2022-08-21T02:20:22;3.85;;;1.65;;
31848;SDS011;18414;59.352;18.152;2022-08-21T02:22:50;4.78;;;1.80;;
31848;SDS011;18414;59.352;18.152;2022-08-21T02:25:17;8.13;;;1.65;;
31848;SDS011;18414;59.352;18.152;2022-08-21T02:27:44;8.32;;;2.00;;
31848;SDS011;18414;59.352;18.152;2022-08-21T02:30:14;7.15;;;1.70;;
31848;SDS011;18414;59.352;18.152;2022-08-21T02:32:40;6.95;;;2.15;;
31848;SDS011;18414;59.352;18.152;2022-08-21T02:35:07;7.75;;;1.80;;
31848;SDS011;18414;59.352;18.152;2022-08-21T02:37:33;4.20;;;1.80;;
31848;SDS011;18414;59.352;18.152;2022-08-21T02:39:59;4.80;;;1.58;;
31848;SDS011;18414;59.352;18.152;2022-08-21T02:42:26;5.15;;;1.92;;
31848;SDS011;18414;59.352;18.152;2022-08-21T02:44:51;6.30;;;1.58;;
31848;SDS011;18414;59.352;18.152;2022-08-21T02:47:16;7.57;;;1.85;;
31848;SDS011;18414;59.352;18.152;2022-08-21T02:49:42;6.32;;;1.85;;
31848;SDS011;18414;59.352;18.152;2022-08-21T02:52:07;9.07;;;1.90;;
31848;SDS011;18414;59.352;18.152;2022-08-21T02:54:32;6.25;;;1.85;;
31848;SDS011;18414;59.352;18.152;2022-08-21T02:56:58;7.22;;;1.77;;
31848;SDS011;18414;59.352;18.152;2022-08-21T02:59:23;5.72;;;1.63;;
31848;SDS011;18414;59.352;18.152;2022-08-21T03:01:48;7.00;;;1.80;;
31848;SDS011;18414;59.352;18.152;2022-08-21T03:04:14;8.07;;;1.98;;
31848;SDS011;18414;59.352;18.152;2022-08-21T03:06:39;5.43;;;1.58;;
31848;SDS011;18414;59.352;18.152;2022-08-21T03:09:05;6.25;;;1.88;;
31848;SDS011;18414;59.352;18.152;2022-08-21T03:11:30;6.82;;;1.90;;
31848;SDS011;18414;59.352;18.152;2022-08-21T03:13:55;5.60;;;1.80;;
31848;SDS011;18414;59.352;18.152;2022-08-21T03:16:21;5.88;;;1.90;;
31848;SDS011;18414;59.352;18.152;2022-08-21T03:18:46;4.57;;;1.70;;
31848;SDS011;18414;59.352;18.152;2022-08-21T03:21:12;5.55;;;1.88;;
31848;SDS011;18414;59.352;18.152;2022-08-21T03:23:38;7.68;;;2.00;;
31848;SDS011;18414;59.352;18.152;2022-08-21T03:26:06;4.90;;;2.00;;
31848;SDS011;18414;59.352;18.152;2022-08-21T03:28:32;5.20;;;2.10;;
31848;SDS011;18414;59.352;18.152;2022-08-21T03:30:58;4.47;;;1.50;;
31848;SDS011;18414;59.352;18.152;2022-08-21T03:33:23;8.00;;;2.10;;
31848;SDS011;18414;59.352;18.152;2022-08-21T03:35:57;4.40;;;1.60;;
31848;SDS011;18414;59.352;18.152;2022-08-21T03:38:28;6.45;;;2.05;;
31848;SDS011;18414;59.352;18.152;2022-08-21T03:40:55;5.75;;;1.73;;
31848;SDS011;18414;59.352;18.152;2022-08-21T03:43:21;4.20;;;1.67;;
31848;SDS011;18414;59.352;18.152;2022-08-21T03:45:46;6.35;;;2.03;;
31848;SDS011;18414;59.352;18.152;2022-08-21T03:48:12;10.35;;;2.13;;
31848;SDS011;18414;59.352;18.152;2022-08-21T03:50:39;9.07;;;2.20;;
31848;SDS011;18414;59.352;18.152;2022-08-21T03:53:07;7.72;;;2.30;;
31848;SDS011;18414;59.352;18.152;2022-08-21T03:55:33;5.70;;;1.92;;
31848;SDS011;18414;59.352;18.152;2022-08-21T03:57:58;7.75;;;2.13;;
31848;SDS011;18414;59.352;18.152;2022-08-21T04:00:23;6.03;;;1.90;;
31848;SDS011;18414;59.352;18.152;2022-08-21T04:02:49;8.70;;;2.00;;
31848;SDS011;18414;59.352;18.152;2022-08-21T04:05:15;9.00;;;2.13;;
31848;SDS011;18414;59.352;18.152;2022-08-21T04:07:56;5.10;;;1.92;;
31848;SDS011;18414;59.352;18.152;2022-08-21T04:10:23;6.60;;;2.20;;
31848;SDS011;18414;59.352;18.152;2022-08-21T04:12:49;8.25;;;2.25;;
31848;SDS011;18414;59.352;18.152;2022-08-21T04:15:15;5.55;;;2.00;;
31848;SDS011;18414;59.352;18.152;2022-08-21T04:17:40;9.00;;;2.38;;
31848;SDS011;18414;59.352;18.152;2022-08-21T04:20:06;7.95;;;2.00;;
31848;SDS011;18414;59.352;18.152;2022-08-21T04:22:32;6.28;;;2.33;;
31848;SDS011;18414;59.352;18.152;2022-08-21T04:24:57;7.25;;;2.30;;
31848;SDS011;18414;59.352;18.152;2022-08-21T04:27:22;6.43;;;2.05;;
31848;SDS011;18414;59.352;18.152;2022-08-21T04:29:48;4.63;;;1.85;;
31848;SDS011;18414;59.352;18.152;2022-08-21T04:32:13;8.60;;;2.50;;
31848;SDS011;18414;59.352;18.152;2022-08-21T04:34:46;6.28;;;2.10;;
31848;SDS011;18414;59.352;18.152;2022-08-21T04:37:12;8.20;;;1.90;;
31848;SDS011;18414;59.352;18.152;2022-08-21T04:39:37;7.15;;;1.73;;
31848;SDS011;18414;59.352;18.152;2022-08-21T04:42:03;6.93;;;2.22;;
31848;SDS011;18414;59.352;18.152;2022-08-21T04:44:29;8.15;;;1.98;;
31848;SDS011;18414;59.352;18.152;2022-08-21T04:46:55;6.63;;;1.80;;
31848;SDS011;18414;59.352;18.152;2022-08-21T04:49:21;6.07;;;1.83;;
31848;SDS011;18414;59.352;18.152;2022-08-21T04:51:46;6.70;;;2.22;;
31848;SDS011;18414;59.352;18.152;2022-08-21T04:54:12;7.28;;;1.88;;
31848;SDS011;18414;59.352;18.152;2022-08-21T04:56:47;7.47;;;2.03;;
31848;SDS011;18414;59.352;18.152;2022-08-21T04:59:35;6.43;;;2.10;;
31848;SDS011;18414;59.352;18.152;2022-08-21T05:02:02;7.00;;;1.98;;
31848;SDS011;18414;59.352;18.152;2022-08-21T05:04:29;7.93;;;2.30;;
31848;SDS011;18414;59.352;18.152;2022-08-21T05:06:56;6.82;;;2.22;;
31848;SDS011;18414;59.352;18.152;2022-08-21T05:09:23;6.35;;;2.05;;
31848;SDS011;18414;59.352;18.152;2022-08-21T05:11:49;7.95;;;2.15;;
31848;SDS011;18414;59.352;18.152;2022-08-21T05:14:15;8.02;;;2.53;;
31848;SDS011;18414;59.352;18.152;2022-08-21T05:16:40;5.35;;;1.90;;
31848;SDS011;18414;59.352;18.152;2022-08-21T05:19:06;8.98;;;1.98;;
31848;SDS011;18414;59.352;18.152;2022-08-21T05:21:33;4.45;;;2.00;;
31848;SDS011;18414;59.352;18.152;2022-08-21T05:23:59;9.57;;;2.10;;
31848;SDS011;18414;59.352;18.152;2022-08-21T05:26:24;6.38;;;2.20;;
31848;SDS011;18414;59.352;18.152;2022-08-21T05:28:50;7.53;;;2.08;;
31848;SDS011;18414;59.352;18.152;2022-08-21T05:31:15;7.53;;;2.58;;
31848;SDS011;18414;59.352;18.152;2022-08-21T05:33:41;5.78;;;1.98;;
31848;SDS011;18414;59.352;18.152;2022-08-21T05:36:06;7.90;;;1.88;;
31848;SDS011;18414;59.352;18.152;2022-08-21T05:38:31;6.15;;;2.00;;
31848;SDS011;18414;59.352;18.152;2022-08-21T05:40:57;6.47;;;2.42;;
31848;SDS011;18414;59.352;18.152;2022-08-21T05:43:22;4.47;;;1.85;;
31848;SDS011;18414;59.352;18.152;2022-08-21T05:45:47;7.75;;;2.00;;
31848;SDS011;18414;59.352;18.152;2022-08-21T05:48:14;8.05;;;2.13;;
31848;SDS011;18414;59.352;18.152;2022-08-21T05:50:42;7.05;;;2.50;;
31848;SDS011;18414;59.352;18.152;2022-08-21T05:53:09;8.13;;;2.30;;
31848;SDS011;18414;59.352;18.152;2022-08-21T05:55:35;6.53;;;2.53;;
31848;SDS011;18414;59.352;18.152;2022-08-21T05:58:01;6.55;;;2.20;;
31848;SDS011;18414;59.352;18.152;2022-08-21T06:00:27;5.78;;;2.10;;
31848;SDS011;18414;59.352;18.152;2022-08-21T06:02:52;6.45;;;2.53;;
31848;SDS011;18414;59.352;18.152;2022-08-21T06:05:18;7.00;;;2.53;;
31848;SDS011;18414;59.352;18.152;2022-08-21T06:07:43;6.35;;;1.90;;
31848;SDS011;18414;59.352;18.152;2022-08-21T06:10:09;7.95;;;2.20;;
31848;SDS011;18414;59.352;18.152;2022-08-21T06:12:35;10.82;;;2.60;;
31848;SDS011;18414;59.352;18.152;2022-08-21T06:15:01;8.90;;;2.42;;
31848;SDS011;18414;59.352;18.152;2022-08-21T06:17:26;7.97;;;2.30;;
31848;SDS011;18414;59.352;18.152;2022-08-21T06:19:52;6.47;;;2.15;;
31848;SDS011;18414;59.352;18.152;2022-08-21T06:22:19;9.02;;;2.30;;
31848;SDS011;18414;59.352;18.152;2022-08-21T06:24:44;10.95;;;2.35;;
31848;SDS011;18414;59.352;18.152;2022-08-21T06:27:10;7.13;;;1.95;;
31848;SDS011;18414;59.352;18.152;2022-08-21T06:29:35;9.30;;;2.10;;
31848;SDS011;18414;59.352;18.152;2022-08-21T06:32:01;6.35;;;2.50;;
31848;SDS011;18414;59.352;18.152;2022-08-21T06:34:27;8.20;;;2.47;;
31848;SDS011;18414;59.352;18.152;2022-08-21T06:36:56;12.07;;;2.45;;
31848;SDS011;18414;59.352;18.152;2022-08-21T06:39:21;9.48;;;2.28;;
31848;SDS011;18414;59.352;18.152;2022-08-21T06:41:46;6.97;;;2.20;;
31848;SDS011;18414;59.352;18.152;2022-08-21T06:44:12;7.00;;;2.30;;
31848;SDS011;18414;59.352;18.152;2022-08-21T06:46:41;5.03;;;1.83;;
31848;SDS011;18414;59.352;18.152;2022-08-21T06:49:06;8.02;;;1.92;;
31848;SDS011;18414;59.352;18.152;2022-08-21T06:51:31;7.55;;;2.25;;
31848;SDS011;18414;59.352;18.152;2022-08-21T06:53:57;11.13;;;2.72;;
31848;SDS011;18414;59.352;18.152;2022-08-21T06:56:22;8.70;;;2.55;;
31848;SDS011;18414;59.352;18.152;2022-08-21T06:58:48;7.43;;;2.05;;
31848;SDS011;18414;59.352;18.152;2022-08-21T07:01:13;7.97;;;2.20;;
31848;SDS011;18414;59.352;18.152;2022-08-21T07:03:39;9.02;;;2.17;;
31848;SDS011;18414;59.352;18.152;2022-08-21T07:06:06;7.70;;;2.13;;
31848;SDS011;18414;59.352;18.152;2022-08-21T07:08:32;5.18;;;1.90;;
31848;SDS011;18414;59.352;18.152;2022-08-21T07:10:59;7.60;;;2.22;;
31848;SDS011;18414;59.352;18.152;2022-08-21T07:13:26;8.13;;;2.30;;
31848;SDS011;18414;59.352;18.152;2022-08-21T07:15:52;11.18;;;2.65;;
31848;SDS011;18414;59.352;18.152;2022-08-21T07:18:17;8.13;;;2.30;;
31848;SDS011;18414;59.352;18.152;2022-08-21T07:20:42;4.70;;;2.10;;
31848;SDS011;18414;59.352;18.152;2022-08-21T07:23:09;8.73;;;2.50;;
31848;SDS011;18414;59.352;18.152;2022-08-21T07:25:37;7.55;;;2.33;;
31848;SDS011;18414;59.352;18.152;2022-08-21T07:28:02;6.50;;;2.20;;
31848;SDS011;18414;59.352;18.152;2022-08-21T07:30:28;9.93;;;2.42;;
31848;SDS011;18414;59.352;18.152;2022-08-21T07:32:53;9.55;;;2.42;;
31848;SDS011;18414;59.352;18.152;2022-08-21T07:35:20;6.25;;;2.30;;
31848;SDS011;18414;59.352;18.152;2022-08-21T07:37:45;5.35;;;2.40;;
31848;SDS011;18414;59.352;18.152;2022-08-21T07:40:11;7.95;;;2.67;;
31848;SDS011;18414;59.352;18.152;2022-08-21T07:42:40;7.32;;;2.50;;
31848;SDS011;18414;59.352;18.152;2022-08-21T07:45:07;5.40;;;2.33;;
31848;SDS011;18414;59.352;18.152;2022-08-21T07:47:33;5.75;;;2.20;;
31848;SDS011;18414;59.352;18.152;2022-08-21T07:49:58;7.53;;;2.53;;
31848;SDS011;18414;59.352;18.152;2022-08-21T07:52:23;10.18;;;2.58;;
31848;SDS011;18414;59.352;18.152;2022-08-21T07:54:49;4.53;;;1.90;;
31848;SDS011;18414;59.352;18.152;2022-08-21T07:57:14;4.63;;;2.22;;
31848;SDS011;18414;59.352;18.152;2022-08-21T07:59:40;8.63;;;2.63;;
31848;SDS011;18414;59.352;18.152;2022-08-21T08:02:06;6.70;;;2.30;;
31848;SDS011;18414;59.352;18.152;2022-08-21T08:04:31;4.85;;;2.20;;
31848;SDS011;18414;59.352;18.152;2022-08-21T08:06:56;5.97;;;2.13;;
31848;SDS011;18414;59.352;18.152;2022-08-21T08:09:22;7.25;;;2.20;;
31848;SDS011;18414;59.352;18.152;2022-08-21T08:11:47;8.10;;;2.42;;
31848;SDS011;18414;59.352;18.152;2022-08-21T08:14:12;8.10;;;2.65;;
31848;SDS011;18414;59.352;18.152;2022-08-21T08:16:38;7.72;;;2.30;;
31848;SDS011;18414;59.352;18.152;2022-08-21T08:19:03;9.55;;;2.30;;
31848;SDS011;18414;59.352;18.152;2022-08-21T08:21:29;9.02;;;2.70;;
31848;SDS011;18414;59.352;18.152;2022-08-21T08:23:54;6.70;;;2.13;;
31848;SDS011;18414;59.352;18.152;2022-08-21T08:26:19;7.65;;;2.40;;
31848;SDS011;18414;59.352;18.152;2022-08-21T08:28:45;6.53;;;2.17;;
31848;SDS011;18414;59.352;18.152;2022-08-21T08:31:12;7.40;;;2.47;;
31848;SDS011;18414;59.352;18.152;2022-08-21T08:33:38;5.97;;;2.33;;
31848;SDS011;18414;59.352;18.152;2022-08-21T08:36:03;9.68;;;2.42;;
31848;SDS011;18414;59.352;18.152;2022-08-21T08:38:29;7.13;;;2.22;;
31848;SDS011;18414;59.352;18.152;2022-08-21T08:43:50;6.82;;;1.73;;
31848;SDS011;18414;59.352;18.152;2022-08-21T08:46:19;5.55;;;2.38;;
31848;SDS011;18414;59.352;18.152;2022-08-21T08:49:00;5.15;;;2.20;;
31848;SDS011;18414;59.352;18.152;2022-08-21T08:51:42;7.82;;;2.40;;
31848;SDS011;18414;59.352;18.152;2022-08-21T08:54:21;9.25;;;2.50;;
31848;SDS011;18414;59.352;18.152;2022-08-21T08:57:09;7.90;;;2.30;;
31848;SDS011;18414;59.352;18.152;2022-08-21T08:59:38;6.50;;;2.03;;
31848;SDS011;18414;59.352;18.152;2022-08-21T09:02:05;4.53;;;2.10;;
31848;SDS011;18414;59.352;18.152;2022-08-21T09:04:31;5.88;;;1.98;;
31848;SDS011;18414;59.352;18.152;2022-08-21T09:20:34;5.50;;;2.00;;
31848;SDS011;18414;59.352;18.152;2022-08-21T09:26:07;6.07;;;1.77;;
31848;SDS011;18414;59.352;18.152;2022-08-21T09:28:36;5.78;;;1.90;;
31848;SDS011;18414;59.352;18.152;2022-08-21T09:31:03;5.03;;;1.83;;
31848;SDS011;18414;59.352;18.152;2022-08-21T09:33:31;4.93;;;1.70;;
31848;SDS011;18414;59.352;18.152;2022-08-21T09:35:57;4.10;;;1.80;;
31848;SDS011;18414;59.352;18.152;2022-08-21T09:40:56;4.70;;;1.60;;
31848;SDS011;18414;59.352;18.152;2022-08-21T09:43:23;5.40;;;2.10;;
31848;SDS011;18414;59.352;18.152;2022-08-21T09:46:11;4.97;;;2.00;;
31848;SDS011;18414;59.352;18.152;2022-08-21T09:48:46;3.42;;;1.77;;
31848;SDS011;18414;59.352;18.152;2022-08-21T09:51:16;4.72;;;1.83;;
31848;SDS011;18414;59.352;18.152;2022-08-21T09:53:45;4.07;;;1.75;;
31848;SDS011;18414;59.352;18.152;2022-08-21T09:59:19;5.70;;;1.80;;
31848;SDS011;18414;59.352;18.152;2022-08-21T10:01:46;7.70;;;1.77;;
31848;SDS011;18414;59.352;18.152;2022-08-21T10:04:13;4.72;;;1.50;;
31848;SDS011;18414;59.352;18.152;2022-08-21T10:06:39;4.80;;;1.92;;
31848;SDS011;18414;59.352;18.152;2022-08-21T10:09:15;4.65;;;1.70;;
31848;SDS011;18414;59.352;18.152;2022-08-21T10:11:43;5.18;;;1.70;;
31848;SDS011;18414;59.352;18.152;2022-08-21T10:17:37;3.17;;;1.30;;
31848;SDS011;18414;59.352;18.152;2022-08-21T10:28:17;2.78;;;1.45;;
31848;SDS011;18414;59.352;18.152;2022-08-21T10:30:52;4.00;;;1.52;;
31848;SDS011;18414;59.352;18.152;2022-08-21T10:36:41;4.40;;;1.65;;
31848;SDS011;18414;59.352;18.152;2022-08-21T10:39:21;5.55;;;1.67;;
31848;SDS011;18414;59.352;18.152;2022-08-21T10:42:08;5.00;;;1.75;;
31848;SDS011;18414;59.352;18.152;2022-08-21T10:45:06;4.32;;;1.73;;
31848;SDS011;18414;59.352;18.152;2022-08-21T10:47:38;5.32;;;1.95;;
31848;SDS011;18414;59.352;18.152;2022-08-21T10:50:17;7.65;;;1.90;;
31848;SDS011;18414;59.352;18.152;2022-08-21T10:55:56;5.05;;;1.42;;
31848;SDS011;18414;59.352;18.152;2022-08-21T10:58:31;5.75;;;1.60;;
31848;SDS011;18414;59.352;18.152;2022-08-21T11:01:07;4.68;;;1.50;;
31848;SDS011;18414;59.352;18.152;2022-08-21T11:03:42;3.30;;;1.63;;
31848;SDS011;18414;59.352;18.152;2022-08-21T11:08:41;3.83;;;1.73;;
31848;SDS011;18414;59.352;18.152;2022-08-21T11:13:41;3.25;;;1.52;;
31848;SDS011;18414;59.352;18.152;2022-08-21T11:16:19;5.75;;;1.80;;
31848;SDS011;18414;59.352;18.152;2022-08-21T11:26:31;4.55;;;1.88;;
31848;SDS011;18414;59.352;18.152;2022-08-21T11:29:23;3.35;;;1.63;;
31848;SDS011;18414;59.352;18.152;2022-08-21T11:34:54;4.35;;;1.77;;
31848;SDS011;18414;59.352;18.152;2022-08-21T11:40:16;4.78;;;1.50;;
31848;SDS011;18414;59.352;18.152;2022-08-21T11:46:11;3.75;;;1.63;;
31848;SDS011;18414;59.352;18.152;2022-08-21T11:51:16;4.90;;;1.73;;
31848;SDS011;18414;59.352;18.152;2022-08-21T11:53:49;4.43;;;1.40;;
31848;SDS011;18414;59.352;18.152;2022-08-21T11:56:33;3.08;;;1.58;;
31848;SDS011;18414;59.352;18.152;2022-08-21T11:59:03;5.20;;;1.63;;
31848;SDS011;18414;59.352;18.152;2022-08-21T12:01:33;4.53;;;1.67;;
31848;SDS011;18414;59.352;18.152;2022-08-21T12:04:02;5.15;;;1.50;;
31848;SDS011;18414;59.352;18.152;2022-08-21T12:06:38;4.07;;;1.45;;
31848;SDS011;18414;59.352;18.152;2022-08-21T12:09:05;6.15;;;1.52;;
31848;SDS011;18414;59.352;18.152;2022-08-21T12:11:46;3.15;;;1.42;;
31848;SDS011;18414;59.352;18.152;2022-08-21T12:14:17;3.30;;;1.38;;
31848;SDS011;18414;59.352;18.152;2022-08-21T12:16:44;3.85;;;1.50;;
31848;SDS011;18414;59.352;18.152;2022-08-21T12:21:48;3.92;;;1.60;;
31848;SDS011;18414;59.352;18.152;2022-08-21T12:24:30;4.22;;;1.45;;
31848;SDS011;18414;59.352;18.152;2022-08-21T12:27:00;4.63;;;1.48;;
31848;SDS011;18414;59.352;18.152;2022-08-21T12:29:38;2.90;;;1.40;;
31848;SDS011;18414;59.352;18.152;2022-08-21T12:34:36;3.75;;;1.65;;
31848;SDS011;18414;59.352;18.152;2022-08-21T12:37:15;5.22;;;1.83;;
31848;SDS011;18414;59.352;18.152;2022-08-21T12:39:46;4.18;;;1.63;;
31848;SDS011;18414;59.352;18.152;2022-08-21T12:42:34;4.90;;;1.70;;
31848;SDS011;18414;59.352;18.152;2022-08-21T12:45:06;3.50;;;1.50;;
31848;SDS011;18414;59.352;18.152;2022-08-21T12:47:50;4.07;;;1.60;;
31848;SDS011;18414;59.352;18.152;2022-08-21T12:50:20;2.80;;;1.40;;
31848;SDS011;18414;59.352;18.152;2022-08-21T12:53:02;3.47;;;1.90;;
31848;SDS011;18414;59.352;18.152;2022-08-21T12:55:32;3.95;;;1.70;;
31848;SDS011;18414;59.352;18.152;2022-08-21T12:57:58;6.13;;;1.80;;
31848;SDS011;18414;59.352;18.152;2022-08-21T13:00:26;2.45;;;1.15;;
31848;SDS011;18414;59.352;18.152;2022-08-21T13:02:53;2.88;;;1.10;;
31848;SDS011;18414;59.352;18.152;2022-08-21T13:05:24;1.55;;;0.90;;
31848;SDS011;18414;59.352;18.152;2022-08-21T13:07:56;1.80;;;1.20;;
31848;SDS011;18414;59.352;18.152;2022-08-21T13:10:25;4.72;;;1.08;;
31848;SDS011;18414;59.352;18.152;2022-08-21T13:12:57;3.15;;;1.15;;
31848;SDS011;18414;59.352;18.152;2022-08-21T13:15:25;2.28;;;0.93;;
31848;SDS011;18414;59.352;18.152;2022-08-21T13:17:52;1.45;;;1.00;;
31848;SDS011;18414;59.352;18.152;2022-08-21T13:20:22;2.55;;;0.90;;
31848;SDS011;18414;59.352;18.152;2022-08-21T13:22:50;3.85;;;0.90;;
31848;SDS011;18414;59.352;18.152;2022-08-21T13:25:17;2.83;;;1.10;;
31848;SDS011;18414;59.352;18.152;2022-08-21T13:27:44;1.90;;;1.00;;
31848;SDS011;18414;59.352;18.152;2022-08-21T13:30:22;1.40;;;0.90;;
31848;SDS011;18414;59.352;18.152;2022-08-21T13:32:48;2.30;;;1.17;;
31848;SDS011;18414;59.352;18.152;2022-08-21T13:38:07;2.15;;;1.00;;
31848;SDS011;18414;59.352;18.152;2022-08-21T13:40:39;2.70;;;1.15;;
31848;SDS011;18414;59.352;18.152;2022-08-21T13:43:15;4.03;;;1.20;;
31848;SDS011;18414;59.352;18.152;2022-08-21T13:45:49;3.30;;;1.10;;
31848;SDS011;18414;59.352;18.152;2022-08-21T13:48:17;2.05;;;0.98;;
31848;SDS011;18414;59.352;18.152;2022-08-21T13:50:43;1.83;;;0.90;;
31848;SDS011;18414;59.352;18.152;2022-08-21T13:56:20;2.15;;;0.90;;
31848;SDS011;18414;59.352;18.152;2022-08-21T13:58:47;2.67;;;0.93;;
31848;SDS011;18414;59.352;18.152;2022-08-21T14:01:20;2.88;;;0.95;;
31848;SDS011;18414;59.352;18.152;2022-08-21T14:04:03;2.20;;;0.90;;
31848;SDS011;18414;59.352;18.152;2022-08-21T14:06:36;1.58;;;1.08;;
31848;SDS011;18414;59.352;18.152;2022-08-21T14:09:12;1.92;;;1.00;;
31848;SDS011;18414;59.352;18.152;2022-08-21T14:11:40;4.05;;;1.40;;
31848;SDS011;18414;59.352;18.152;2022-08-21T14:14:16;1.92;;;1.00;;
31848;SDS011;18414;59.352;18.152;2022-08-21T14:16:46;2.75;;;1.10;;
31848;SDS011;18414;59.352;18.152;2022-08-21T14:19:20;2.55;;;1.05;;
31848;SDS011;18414;59.352;18.152;2022-08-21T14:21:48;1.65;;;1.20;;
31848;SDS011;18414;59.352;18.152;2022-08-21T14:24:25;1.95;;;1.02;;
31848;SDS011;18414;59.352;18.152;2022-08-21T14:26:54;2.30;;;1.15;;
31848;SDS011;18414;59.352;18.152;2022-08-21T14:29:22;2.83;;;1.23;;
31848;SDS011;18414;59.352;18.152;2022-08-21T14:31:51;4.80;;;1.10;;
31848;SDS011;18414;59.352;18.152;2022-08-21T14:34:19;2.13;;;1.10;;
31848;SDS011;18414;59.352;18.152;2022-08-21T14:36:44;2.08;;;1.13;;
31848;SDS011;18414;59.352;18.152;2022-08-21T14:39:10;2.60;;;1.08;;
31848;SDS011;18414;59.352;18.152;2022-08-21T14:41:36;3.50;;;1.30;;
31848;SDS011;18414;59.352;18.152;2022-08-21T14:44:03;2.33;;;1.20;;
31848;SDS011;18414;59.352;18.152;2022-08-21T14:46:30;2.53;;;1.30;;
31848;SDS011;18414;59.352;18.152;2022-08-21T14:48:57;2.15;;;1.08;;
31848;SDS011;18414;59.352;18.152;2022-08-21T14:51:28;3.20;;;2.00;;
31848;SDS011;18414;59.352;18.152;2022-08-21T14:53:53;3.95;;;1.77;;
31848;SDS011;18414;59.352;18.152;2022-08-21T14:56:18;1.63;;;1.20;;
31848;SDS011;18414;59.352;18.152;2022-08-21T14:58:48;3.03;;;1.30;;
31848;SDS011;18414;59.352;18.152;2022-08-21T15:01:14;3.40;;;1.42;;
31848;SDS011;18414;59.352;18.152;2022-08-21T15:03:42;2.95;;;1.45;;
31848;SDS011;18414;59.352;18.152;2022-08-21T15:06:08;3.15;;;1.20;;
31848;SDS011;18414;59.352;18.152;2022-08-21T15:08:34;3.83;;;1.65;;
31848;SDS011;18414;59.352;18.152;2022-08-21T15:11:00;1.88;;;1.23;;
31848;SDS011;18414;59.352;18.152;2022-08-21T15:13:27;1.77;;;1.13;;
31848;SDS011;18414;59.352;18.152;2022-08-21T15:15:52;2.20;;;1.20;;
31848;SDS011;18414;59.352;18.152;2022-08-21T15:18:22;4.53;;;1.60;;
31848;SDS011;18414;59.352;18.152;2022-08-21T15:20:49;4.55;;;1.55;;
31848;SDS011;18414;59.352;18.152;2022-08-21T15:23:16;2.33;;;1.33;;
31848;SDS011;18414;59.352;18.152;2022-08-21T15:25:42;3.95;;;1.50;;
31848;SDS011;18414;59.352;18.152;2022-08-21T15:28:10;2.35;;;1.23;;
31848;SDS011;18414;59.352;18.152;2022-08-21T15:30:36;3.83;;;1.52;;
31848;SDS011;18414;59.352;18.152;2022-08-21T15:33:03;2.65;;;1.33;;
31848;SDS011;18414;59.352;18.152;2022-08-21T15:35:29;2.88;;;1.50;;
31848;SDS011;18414;59.352;18.152;2022-08-21T15:37:54;3.28;;;1.30;;
31848;SDS011;18414;59.352;18.152;2022-08-21T15:40:20;2.58;;;1.30;;
31848;SDS011;18414;59.352;18.152;2022-08-21T15:42:46;4.82;;;1.40;;
31848;SDS011;18414;59.352;18.152;2022-08-21T15:45:12;2.33;;;1.40;;
31848;SDS011;18414;59.352;18.152;2022-08-21T15:47:38;3.47;;;1.35;;
31848;SDS011;18414;59.352;18.152;2022-08-21T15:50:05;2.35;;;1.30;;
31848;SDS011;18414;59.352;18.152;2022-08-21T15:52:34;2.50;;;1.38;;
31848;SDS011;18414;59.352;18.152;2022-08-21T15:54:59;2.28;;;1.27;;
31848;SDS011;18414;59.352;18.152;2022-08-21T15:57:25;1.65;;;1.20;;